createdAt,value
2023-03-30T00:01:14.592Z,96.41
2023-03-30T00:03:43.063Z,96.83
2023-03-30T00:06:12.502Z,96.80
2023-03-30T00:08:39.129Z,97.59
2023-03-30T00:11:06.246Z,97.67
2023-03-30T00:13:35.453Z,98.53
2023-03-30T00:16:02.939Z,99.29
2023-03-30T00:18:32.173Z,99.91
2023-03-30T00:20:59.218Z,99.01
2023-03-30T00:23:26.198Z,100.00
2023-03-30T00:25:52.806Z,100.00
2023-03-30T00:28:19.758Z,100.00
2023-03-30T00:30:48.111Z,100.00
2023-03-30T00:33:15.112Z,99.89
2023-03-30T00:35:42.210Z,100.00
2023-03-30T00:38:09.471Z,100.00
2023-03-30T00:40:36.734Z,100.00
2023-03-30T00:43:05.978Z,99.97
2023-03-30T00:45:34.478Z,99.49
2023-03-30T00:48:18.039Z,98.53
2023-03-30T00:50:45.981Z,98.62
2023-03-30T00:53:22.646Z,98.81
2023-03-30T00:55:51.941Z,98.85
2023-03-30T00:58:21.335Z,97.82
2023-03-30T01:00:48.613Z,97.07
2023-03-30T01:03:37.607Z,95.33
2023-03-30T01:06:07.621Z,95.08
2023-03-30T01:08:34.768Z,94.70
2023-03-30T01:11:03.564Z,94.47
2023-03-30T01:13:35.925Z,94.41
2023-03-30T01:16:06.223Z,93.11
2023-03-30T01:18:55.463Z,93.56
2023-03-30T01:22:04.800Z,92.58
2023-03-30T01:24:49.213Z,93.70
2023-03-30T01:28:00.986Z,93.43
2023-03-30T01:30:37.435Z,92.97
2023-03-30T01:33:28.785Z,93.80
2023-03-30T01:36:40.180Z,93.22
2023-03-30T01:39:12.924Z,92.90
2023-03-30T01:41:57.797Z,92.84
2023-03-30T01:44:41.731Z,95.10
2023-03-30T01:47:26.807Z,95.11
2023-03-30T01:50:07.608Z,94.87
2023-03-30T01:52:42.455Z,95.35
2023-03-30T01:55:16.945Z,96.56
2023-03-30T01:58:08.105Z,98.06
2023-03-30T02:00:38.247Z,100.00
2023-03-30T02:03:12.411Z,99.71
2023-03-30T02:05:40.856Z,99.63
2023-03-30T02:08:12.443Z,100.00
2023-03-30T02:10:39.513Z,98.78
2023-03-30T02:13:08.281Z,99.64
2023-03-30T02:15:42.862Z,99.95
2023-03-30T02:18:10.457Z,99.67
2023-03-30T02:20:39.034Z,99.58
2023-03-30T02:23:07.121Z,98.34
2023-03-30T02:25:36.221Z,99.13
2023-03-30T02:28:02.877Z,99.57
2023-03-30T02:30:34.717Z,97.22
2023-03-30T02:33:02.061Z,100.00
2023-03-30T02:35:43.746Z,100.00
2023-03-30T02:38:41.820Z,100.00
2023-03-30T02:41:26.877Z,100.00
2023-03-30T02:44:26.761Z,100.00
2023-03-30T02:47:07.260Z,100.00
2023-03-30T02:49:50.896Z,100.00
2023-03-30T02:52:36.889Z,100.00
2023-03-30T02:55:15.465Z,100.00
2023-03-30T02:58:21.319Z,100.00
2023-03-30T03:01:33.635Z,100.00
2023-03-30T03:04:15.692Z,100.00
2023-03-30T03:07:15.572Z,100.00
2023-03-30T03:09:43.087Z,100.00
2023-03-30T03:12:10.210Z,100.00
2023-03-30T03:14:39.095Z,100.00
2023-03-30T03:17:06.294Z,100.00
2023-03-30T03:19:37.613Z,100.00
2023-03-30T03:22:04.722Z,100.00
2023-03-30T03:24:39.181Z,100.00
2023-03-30T03:27:08.786Z,100.00
2023-03-30T03:29:52.141Z,100.00
2023-03-30T03:32:19.535Z,100.00
2023-03-30T03:34:48.421Z,100.00
2023-03-30T03:37:15.630Z,100.00
2023-03-30T03:39:44.341Z,100.00
2023-03-30T03:42:12.624Z,100.00
2023-03-30T03:44:50.788Z,100.00
2023-03-30T03:47:18.243Z,100.00
2023-03-30T03:49:46.476Z,100.00
2023-03-30T03:52:13.522Z,100.00
2023-03-30T03:54:40.340Z,100.00
2023-03-30T03:57:07.201Z,100.00
2023-03-30T03:59:33.871Z,100.00
2023-03-30T04:02:00.797Z,100.00
2023-03-30T04:04:27.774Z,100.00
2023-03-30T04:06:56.287Z,100.00
2023-03-30T04:09:23.530Z,100.00
2023-03-30T04:12:31.904Z,100.00
2023-03-30T04:15:21.319Z,100.00
2023-03-30T04:18:08.751Z,100.00
2023-03-30T04:21:07.149Z,100.00
2023-03-30T04:23:57.073Z,100.00
2023-03-30T04:26:32.409Z,100.00
2023-03-30T04:29:08.088Z,100.00
2023-03-30T04:31:53.989Z,100.00
2023-03-30T04:34:44.412Z,100.00
2023-03-30T04:37:31.615Z,100.00
2023-03-30T04:40:09.530Z,100.00
2023-03-30T04:42:52.672Z,100.00
2023-03-30T04:45:37.908Z,100.00
2023-03-30T04:48:24.315Z,100.00
2023-03-30T04:51:16.999Z,100.00
2023-03-30T04:54:12.997Z,100.00
2023-03-30T04:57:09.346Z,100.00
2023-03-30T04:59:44.923Z,100.00
2023-03-30T05:02:31.938Z,100.00
2023-03-30T05:05:21.680Z,100.00
2023-03-30T05:08:08.889Z,100.00
2023-03-30T05:11:07.936Z,100.00
2023-03-30T05:13:55.896Z,100.00
2023-03-30T05:16:44.758Z,100.00
2023-03-30T05:19:29.404Z,100.00
2023-03-30T05:22:16.396Z,100.00
2023-03-30T05:24:52.201Z,100.00
2023-03-30T05:27:31.504Z,100.00
2023-03-30T05:30:20.779Z,100.00
2023-03-30T05:33:19.404Z,100.00
2023-03-30T05:36:09.966Z,100.00
2023-03-30T05:38:45.181Z,100.00
2023-03-30T05:41:25.040Z,100.00
2023-03-30T05:44:09.232Z,100.00
2023-03-30T05:46:56.168Z,100.00
2023-03-30T05:49:43.305Z,100.00
2023-03-30T05:52:33.146Z,100.00
2023-03-30T05:55:20.453Z,100.00
2023-03-30T05:58:13.833Z,100.00
2023-03-30T06:01:06.016Z,100.00
2023-03-30T06:03:39.109Z,100.00
2023-03-30T06:06:08.253Z,100.00
2023-03-30T06:08:35.672Z,100.00
2023-03-30T06:11:04.807Z,100.00
2023-03-30T06:13:42.991Z,100.00
2023-03-30T06:16:09.999Z,100.00
2023-03-30T06:18:37.763Z,100.00
2023-03-30T06:21:08.265Z,100.00
2023-03-30T06:24:04.572Z,100.00
2023-03-30T06:26:34.869Z,100.00
2023-03-30T06:29:02.067Z,100.00
2023-03-30T06:31:29.056Z,100.00
2023-03-30T06:34:14.246Z,100.00
2023-03-30T06:36:44.568Z,100.00
2023-03-30T06:39:12.715Z,100.00
2023-03-30T06:41:39.713Z,100.00
2023-03-30T06:44:06.919Z,100.00
2023-03-30T06:46:35.268Z,100.00
2023-03-30T06:49:02.121Z,100.00
2023-03-30T06:52:04.356Z,100.00
2023-03-30T06:54:33.415Z,100.00
2023-03-30T06:57:05.493Z,100.00
2023-03-30T06:59:35.192Z,100.00
2023-03-30T07:02:22.485Z,100.00
2023-03-30T07:04:50.207Z,100.00
2023-03-30T07:07:52.542Z,100.00
2023-03-30T07:10:20.012Z,100.00
2023-03-30T07:12:47.136Z,100.00
2023-03-30T07:15:14.816Z,100.00
2023-03-30T07:17:42.018Z,100.00
2023-03-30T07:20:10.854Z,100.00
2023-03-30T07:22:52.782Z,100.00
2023-03-30T07:25:19.482Z,100.00
2023-03-30T07:27:47.736Z,100.00
2023-03-30T07:30:21.909Z,100.00
2023-03-30T07:32:54.423Z,100.00
2023-03-30T07:35:22.694Z,100.00
2023-03-30T07:38:02.029Z,100.00
2023-03-30T07:40:32.820Z,100.00
2023-03-30T07:42:59.409Z,100.00
2023-03-30T07:45:27.069Z,100.00
2023-03-30T07:47:53.954Z,100.00
2023-03-30T07:50:21.547Z,100.00
2023-03-30T07:52:51.304Z,100.00
2023-03-30T07:55:18.548Z,100.00
2023-03-30T07:57:52.519Z,100.00
2023-03-30T08:00:20.756Z,100.00
2023-03-30T08:03:05.891Z,100.00
2023-03-30T08:05:32.690Z,100.00
2023-03-30T08:08:19.902Z,100.00
2023-03-30T08:10:46.769Z,100.00
2023-03-30T08:13:13.401Z,100.00
2023-03-30T08:15:40.129Z,100.00
2023-03-30T08:18:08.349Z,100.00
2023-03-30T08:20:37.604Z,100.00
2023-03-30T08:23:05.694Z,100.00
2023-03-30T08:25:32.972Z,100.00
2023-03-30T08:27:59.990Z,100.00
2023-03-30T08:30:26.682Z,100.00
2023-03-30T08:32:53.806Z,100.00
2023-03-30T08:35:21.747Z,100.00
2023-03-30T08:37:48.862Z,100.00
2023-03-30T08:40:17.889Z,100.00
2023-03-30T08:42:58.247Z,100.00
2023-03-30T08:45:25.121Z,100.00
2023-03-30T08:47:53.981Z,100.00
2023-03-30T08:50:51.952Z,100.00
2023-03-30T08:53:19.108Z,100.00
2023-03-30T08:56:16.210Z,100.00
2023-03-30T08:58:58.385Z,100.00
2023-03-30T09:01:29.133Z,100.00
2023-03-30T09:04:17.068Z,100.00
2023-03-30T09:07:21.570Z,100.00
2023-03-30T09:09:50.925Z,100.00
2023-03-30T09:12:41.864Z,100.00
2023-03-30T09:15:08.931Z,100.00
2023-03-30T09:17:42.602Z,100.00
2023-03-30T09:20:23.726Z,100.00
2023-03-30T09:22:53.814Z,100.00
2023-03-30T09:25:32.487Z,100.00
2023-03-30T09:28:22.013Z,100.00
2023-03-30T09:30:53.167Z,100.00
2023-03-30T09:34:12.314Z,100.00
2023-03-30T09:37:03.417Z,100.00
2023-03-30T09:39:33.543Z,100.00
2023-03-30T09:42:24.670Z,100.00
2023-03-30T09:45:13.652Z,100.00
2023-03-30T09:47:42.317Z,100.00
2023-03-30T09:50:28.635Z,100.00
2023-03-30T09:53:07.099Z,100.00
2023-03-30T09:55:35.761Z,100.00
2023-03-30T09:58:11.501Z,92.60
2023-03-30T10:00:39.371Z,92.06
2023-03-30T10:03:08.032Z,91.41
2023-03-30T10:05:36.728Z,91.25
2023-03-30T10:08:24.455Z,85.47
2023-03-30T10:10:57.485Z,90.17
2023-03-30T10:13:32.541Z,85.36
2023-03-30T10:16:05.682Z,84.27
2023-03-30T10:18:39.657Z,81.18
2023-03-30T10:21:15.529Z,83.77
2023-03-30T10:23:44.881Z,80.33
2023-03-30T10:26:19.976Z,83.30
2023-03-30T10:28:55.630Z,86.55
2023-03-30T10:31:25.626Z,87.06
2023-03-30T10:34:00.446Z,87.28
2023-03-30T10:36:34.281Z,92.23
2023-03-30T10:39:20.535Z,95.55
2023-03-30T10:41:48.698Z,96.01
2023-03-30T10:44:24.960Z,96.55
2023-03-30T10:46:56.360Z,97.81
2023-03-30T10:49:27.017Z,99.54
2023-03-30T10:52:02.858Z,100.00
2023-03-30T10:54:48.790Z,100.00
2023-03-30T10:57:31.742Z,100.00
2023-03-30T11:00:15.414Z,100.00
2023-03-30T11:02:51.599Z,100.00
2023-03-30T11:05:32.431Z,100.00
2023-03-30T11:08:12.845Z,100.00
2023-03-30T11:10:44.440Z,100.00
2023-03-30T11:13:15.044Z,100.00
2023-03-30T11:15:55.456Z,100.00
2023-03-30T11:18:41.058Z,100.00
2023-03-30T11:21:47.240Z,100.00
2023-03-30T11:24:20.658Z,100.00
2023-03-30T11:27:06.990Z,100.00
2023-03-30T11:30:01.806Z,100.00
2023-03-30T11:32:52.944Z,100.00
2023-03-30T11:35:33.514Z,100.00
2023-03-30T11:38:24.729Z,100.00
2023-03-30T11:40:58.426Z,100.00
2023-03-30T11:43:28.320Z,100.00
2023-03-30T11:46:03.572Z,100.00
2023-03-30T11:48:42.822Z,100.00
2023-03-30T11:51:18.635Z,100.00
2023-03-30T11:54:04.953Z,100.00
2023-03-30T11:56:46.898Z,100.00
2023-03-30T11:59:31.597Z,100.00
2023-03-30T12:02:36.738Z,100.00
2023-03-30T12:05:16.684Z,100.00
2023-03-30T12:07:52.418Z,100.00
2023-03-30T12:10:23.947Z,100.00
2023-03-30T12:12:52.038Z,100.00
2023-03-30T12:15:34.354Z,100.00
2023-03-30T12:18:15.054Z,100.00
2023-03-30T12:21:09.050Z,100.00
2023-03-30T12:24:11.618Z,100.00
2023-03-30T12:26:38.726Z,100.00
2023-03-30T12:29:44.343Z,100.00
2023-03-30T12:32:04.704Z,100.00
2023-03-30T12:34:41.302Z,100.00
2023-03-30T12:37:34.838Z,100.00
2023-03-30T12:40:22.644Z,100.00
2023-03-30T12:43:04.243Z,100.00
2023-03-30T12:45:33.118Z,100.00
2023-03-30T12:48:14.529Z,100.00
2023-03-30T12:51:07.146Z,100.00
2023-03-30T12:54:01.950Z,100.00
2023-03-30T12:56:38.477Z,100.00
2023-03-30T12:59:26.380Z,100.00
2023-03-30T13:02:05.332Z,100.00
2023-03-30T13:04:39.595Z,100.00
2023-03-30T13:07:21.586Z,100.00
2023-03-30T13:10:03.999Z,100.00
2023-03-30T13:12:42.468Z,100.00
2023-03-30T13:15:21.505Z,100.00
2023-03-30T13:17:56.231Z,100.00
2023-03-30T13:20:55.050Z,100.00
2023-03-30T13:23:21.700Z,100.00
2023-03-30T13:25:54.495Z,100.00
2023-03-30T13:28:58.567Z,100.00
2023-03-30T13:32:02.817Z,100.00
2023-03-30T13:34:59.030Z,100.00
2023-03-30T13:37:55.211Z,100.00
2023-03-30T13:40:40.334Z,100.00
2023-03-30T13:43:33.265Z,100.00
2023-03-30T13:46:16.909Z,100.00
2023-03-30T13:48:56.075Z,100.00
2023-03-30T13:51:25.984Z,100.00
2023-03-30T13:53:58.372Z,100.00
2023-03-30T13:56:27.297Z,100.00
2023-03-30T13:59:06.517Z,100.00
2023-03-30T14:01:34.637Z,100.00
2023-03-30T14:04:03.890Z,100.00
2023-03-30T14:06:34.318Z,100.00
2023-03-30T14:09:05.565Z,100.00
2023-03-30T14:11:39.882Z,100.00
2023-03-30T14:14:07.074Z,100.00
2023-03-30T14:16:40.504Z,100.00
2023-03-30T14:19:08.241Z,100.00
2023-03-30T14:21:39.669Z,100.00
2023-03-30T14:24:12.766Z,100.00
2023-03-30T14:26:42.384Z,100.00
2023-03-30T14:29:28.259Z,100.00
2023-03-30T14:32:07.832Z,100.00
2023-03-30T14:34:35.969Z,100.00
2023-03-30T14:37:08.040Z,100.00
2023-03-30T14:39:41.208Z,100.00
2023-03-30T14:42:24.218Z,100.00
2023-03-30T14:44:54.021Z,100.00
2023-03-30T14:47:23.568Z,100.00
2023-03-30T14:50:01.892Z,100.00
2023-03-30T14:52:38.006Z,100.00
2023-03-30T14:55:09.927Z,100.00
2023-03-30T14:57:41.824Z,100.00
2023-03-30T15:00:23.460Z,100.00
2023-03-30T15:02:52.486Z,100.00
2023-03-30T15:05:21.378Z,100.00
2023-03-30T15:07:50.753Z,100.00
2023-03-30T15:10:25.906Z,100.00
2023-03-30T15:12:57.872Z,100.00
2023-03-30T15:15:29.759Z,100.00
2023-03-30T15:17:57.315Z,100.00
2023-03-30T15:20:29.903Z,100.00
2023-03-30T15:22:56.963Z,100.00
2023-03-30T15:25:31.424Z,100.00
2023-03-30T15:28:01.331Z,100.00
2023-03-30T15:30:43.920Z,100.00
2023-03-30T15:33:30.977Z,100.00
2023-03-30T15:36:05.625Z,100.00
2023-03-30T15:38:35.957Z,100.00
2023-03-30T15:41:02.817Z,100.00
2023-03-30T15:43:33.568Z,100.00
2023-03-30T15:46:12.616Z,100.00
2023-03-30T15:48:44.130Z,100.00
2023-03-30T15:51:17.459Z,100.00
2023-03-30T15:53:51.643Z,100.00
2023-03-30T15:56:27.917Z,100.00
2023-03-30T15:58:54.846Z,100.00
2023-03-30T16:01:23.245Z,100.00
2023-03-30T16:04:00.239Z,100.00
2023-03-30T16:06:39.833Z,100.00
2023-03-30T16:09:08.183Z,100.00
2023-03-30T16:11:51.357Z,100.00
2023-03-30T16:14:20.358Z,100.00
2023-03-30T16:16:48.070Z,100.00
2023-03-30T16:19:18.482Z,100.00
2023-03-30T16:21:45.695Z,100.00
2023-03-30T16:24:12.526Z,100.00
2023-03-30T16:26:39.275Z,100.00
2023-03-30T16:29:18.140Z,100.00
2023-03-30T16:31:44.863Z,100.00
2023-03-30T16:34:11.429Z,100.00
2023-03-30T16:36:38.148Z,100.00
2023-03-30T16:39:06.427Z,100.00
2023-03-30T16:41:32.932Z,100.00
2023-03-30T16:43:59.812Z,100.00
2023-03-30T16:46:27.149Z,100.00
2023-03-30T16:48:53.776Z,100.00
2023-03-30T16:51:20.440Z,100.00
2023-03-30T16:53:47.653Z,100.00
2023-03-30T16:56:19.019Z,100.00
2023-03-30T16:58:46.723Z,100.00
2023-03-30T17:01:18.410Z,100.00
2023-03-30T17:03:45.788Z,100.00
2023-03-30T17:06:14.048Z,100.00
2023-03-30T17:08:42.948Z,100.00
2023-03-30T17:11:10.860Z,100.00
2023-03-30T17:13:37.439Z,100.00
2023-03-30T17:16:04.165Z,100.00
2023-03-30T17:18:31.618Z,100.00
2023-03-30T17:21:02.148Z,100.00
2023-03-30T17:23:31.970Z,100.00
2023-03-30T17:26:00.359Z,100.00
2023-03-30T17:28:33.639Z,100.00
2023-03-30T17:31:02.979Z,100.00
2023-03-30T17:33:31.729Z,100.00
2023-03-30T17:36:11.229Z,100.00
2023-03-30T17:38:38.279Z,100.00
2023-03-30T17:41:07.321Z,100.00
2023-03-30T17:43:34.414Z,100.00
2023-03-30T17:46:01.597Z,100.00
2023-03-30T17:48:28.456Z,100.00
2023-03-30T17:50:55.270Z,100.00
2023-03-30T17:53:26.626Z,100.00
2023-03-30T17:55:53.598Z,100.00
2023-03-30T17:58:26.083Z,100.00
2023-03-30T18:00:53.751Z,100.00
2023-03-30T18:03:22.565Z,100.00
2023-03-30T18:05:50.729Z,100.00
2023-03-30T18:08:21.348Z,100.00
2023-03-30T18:10:59.049Z,100.00
2023-03-30T18:13:27.813Z,100.00
2023-03-30T18:15:56.904Z,100.00
2023-03-30T18:18:26.105Z,100.00
2023-03-30T18:20:55.384Z,100.00
2023-03-30T18:23:22.548Z,100.00
2023-03-30T18:25:49.914Z,100.00
2023-03-30T18:28:24.801Z,100.00
2023-03-30T18:30:53.407Z,100.00
2023-03-30T18:33:20.210Z,100.00
2023-03-30T18:35:49.269Z,100.00
2023-03-30T18:38:19.489Z,100.00
2023-03-30T18:40:53.386Z,100.00
2023-03-30T18:43:20.429Z,100.00
2023-03-30T18:45:49.470Z,100.00
2023-03-30T18:48:19.215Z,100.00
2023-03-30T18:50:47.716Z,100.00
2023-03-30T18:53:17.057Z,100.00
2023-03-30T18:55:46.252Z,100.00
2023-03-30T18:58:14.695Z,100.00
2023-03-30T19:00:41.324Z,100.00
2023-03-30T19:03:08.163Z,100.00
2023-03-30T19:05:35.676Z,100.00
2023-03-30T19:08:02.319Z,100.00
2023-03-30T19:10:31.618Z,100.00
2023-03-30T19:12:59.150Z,100.00
2023-03-30T19:15:33.027Z,100.00
2023-03-30T19:18:00.795Z,100.00
2023-03-30T19:20:29.616Z,100.00
2023-03-30T19:22:56.418Z,100.00
2023-03-30T19:25:24.603Z,100.00
2023-03-30T19:28:02.562Z,100.00
2023-03-30T19:30:32.643Z,100.00
2023-03-30T19:33:02.867Z,100.00
2023-03-30T19:35:29.904Z,100.00
2023-03-30T19:37:57.257Z,100.00
2023-03-30T19:40:24.693Z,100.00
2023-03-30T19:42:51.572Z,100.00
2023-03-30T19:45:21.376Z,100.00
2023-03-30T19:47:48.056Z,100.00
2023-03-30T19:50:18.055Z,100.00
2023-03-30T19:52:49.993Z,100.00
2023-03-30T19:55:20.870Z,100.00
2023-03-30T19:57:47.724Z,100.00
2023-03-30T20:00:17.049Z,100.00
2023-03-30T20:02:49.432Z,100.00
2023-03-30T20:05:16.835Z,100.00
2023-03-30T20:07:45.566Z,100.00
2023-03-30T20:10:16.650Z,100.00
2023-03-30T20:12:43.390Z,100.00
2023-03-30T20:15:11.341Z,100.00
2023-03-30T20:17:39.139Z,100.00
2023-03-30T20:20:09.320Z,100.00
2023-03-30T20:22:37.232Z,100.00
2023-03-30T20:25:06.459Z,100.00
2023-03-30T20:27:33.969Z,100.00
2023-03-30T20:30:01.776Z,100.00
2023-03-30T20:32:28.495Z,100.00
2023-03-30T20:34:55.331Z,100.00
2023-03-30T20:37:21.860Z,100.00
2023-03-30T20:39:50.644Z,100.00
2023-03-30T20:42:18.143Z,100.00
2023-03-30T20:44:50.361Z,100.00
2023-03-30T20:47:18.214Z,100.00
2023-03-30T20:49:46.372Z,100.00
2023-03-30T20:52:13.066Z,100.00
2023-03-30T20:54:41.179Z,100.00
2023-03-30T20:57:08.081Z,100.00
2023-03-30T20:59:34.732Z,100.00
2023-03-30T21:02:01.327Z,100.00
2023-03-30T21:04:28.867Z,100.00
2023-03-30T21:06:55.907Z,100.00
2023-03-30T21:09:22.557Z,100.00
2023-03-30T21:11:49.799Z,100.00
2023-03-30T21:14:16.611Z,100.00
2023-03-30T21:16:43.659Z,100.00
2023-03-30T21:19:11.517Z,100.00
2023-03-30T21:21:38.963Z,100.00
2023-03-30T21:24:08.724Z,100.00
2023-03-30T21:26:35.601Z,100.00
2023-03-30T21:29:02.267Z,100.00
2023-03-30T21:31:29.307Z,100.00
2023-03-30T21:33:56.141Z,100.00
2023-03-30T21:36:23.271Z,100.00
2023-03-30T21:38:50.074Z,100.00
2023-03-30T21:41:19.413Z,100.00
2023-03-30T21:43:47.314Z,100.00
2023-03-30T21:46:18.680Z,100.00
2023-03-30T21:48:46.215Z,100.00
2023-03-30T21:51:19.658Z,100.00
2023-03-30T21:53:48.452Z,100.00
2023-03-30T21:56:15.508Z,100.00
2023-03-30T21:58:42.350Z,100.00
2023-03-30T22:01:12.193Z,100.00
2023-03-30T22:03:41.274Z,100.00
2023-03-30T22:06:10.281Z,100.00
2023-03-30T22:08:37.061Z,100.00
2023-03-30T22:11:06.685Z,100.00
2023-03-30T22:13:33.834Z,100.00
2023-03-30T22:16:06.536Z,100.00
2023-03-30T22:18:34.339Z,100.00
2023-03-30T22:21:03.359Z,100.00
2023-03-30T22:23:30.930Z,100.00
2023-03-30T22:25:58.095Z,100.00
2023-03-30T22:28:24.830Z,100.00
2023-03-30T22:30:51.712Z,100.00
2023-03-30T22:33:19.021Z,100.00
2023-03-30T22:35:46.863Z,100.00
2023-03-30T22:38:14.978Z,100.00
2023-03-30T22:40:42.077Z,100.00
2023-03-30T22:43:10.052Z,100.00
2023-03-30T22:45:36.984Z,100.00
2023-03-30T22:48:04.071Z,100.00
2023-03-30T22:50:31.026Z,100.00
2023-03-30T22:52:57.915Z,100.00
2023-03-30T22:55:24.940Z,100.00
2023-03-30T22:57:53.172Z,100.00
2023-03-30T23:00:21.218Z,100.00
2023-03-30T23:02:49.674Z,100.00
2023-03-30T23:05:17.143Z,100.00
2023-03-30T23:07:44.484Z,100.00
2023-03-30T23:10:15.260Z,100.00
2023-03-30T23:12:43.290Z,100.00
2023-03-30T23:15:11.091Z,100.00
2023-03-30T23:17:38.632Z,100.00
2023-03-30T23:20:10.022Z,100.00
2023-03-30T23:22:38.219Z,100.00
2023-03-30T23:25:06.460Z,100.00
2023-03-30T23:27:33.873Z,100.00
2023-03-30T23:30:01.065Z,100.00
2023-03-30T23:32:27.776Z,100.00
2023-03-30T23:34:54.542Z,100.00
2023-03-30T23:37:22.035Z,100.00
2023-03-30T23:39:48.942Z,100.00
2023-03-30T23:42:16.386Z,100.00
2023-03-30T23:44:43.012Z,100.00
2023-03-30T23:47:09.784Z,100.00
2023-03-30T23:49:36.334Z,100.00
2023-03-30T23:52:03.282Z,100.00
2023-03-30T23:54:31.534Z,100.00
2023-03-30T23:56:58.503Z,100.00
2023-03-30T23:59:25.789Z,100.00
